Time;durP1;ratioP1;P1;durP2;ratioP2;P2;SDS_P1;SDS_P2;PMS_P1;PMS_P2;Temp;Humidity;BMP_temperature;BMP_pressure;BME280_temperature;BME280_humidity;BME280_pressure;Samples;Min_cycle;Max_cycle;Signal;HPM_P1;HPM_P2
2022/04/08 00:00:28;;;;;;;18.17;2.28;;;;;;;5.57;100.00;99786.44;5015196;28;20033;-70
2022/04/08 00:02:54;;;;;;;20.23;1.98;;;;;;;5.58;100.00;99798.66;5014518;28;20026;-70
2022/04/08 00:05:19;;;;;;;15.38;2.38;;;;;;;5.57;100.00;99802.09;4998306;28;20438;-70
2022/04/08 00:07:44;;;;;;;11.75;1.40;;;;;;;5.60;100.00;99789.09;5014816;28;20076;-70
2022/04/08 00:10:11;;;;;;;9.77;1.90;;;;;;;5.59;100.00;99795.19;5015730;28;20025;-70
2022/04/08 00:12:36;;;;;;;15.77;2.13;;;;;;;5.58;100.00;99804.72;5015048;28;20075;-70
2022/04/08 00:15:03;;;;;;;9.38;1.88;;;;;;;5.47;100.00;99821.03;5015740;28;20108;-70
2022/04/08 00:17:29;;;;;;;14.35;1.65;;;;;;;5.34;100.00;99812.94;5013177;28;20083;-70
2022/04/08 00:19:54;;;;;;;17.40;2.42;;;;;;;5.16;100.00;99826.47;5012984;28;20045;-70
2022/04/08 00:22:21;;;;;;;12.77;2.53;;;;;;;5.07;100.00;99832.38;5014377;28;20030;-70
2022/04/08 00:24:46;;;;;;;11.82;2.22;;;;;;;5.00;100.00;99825.25;5015177;28;20030;-70
2022/04/08 00:27:12;;;;;;;14.63;2.03;;;;;;;4.95;100.00;99826.00;5013814;28;20057;-70
2022/04/08 00:29:38;;;;;;;11.35;2.00;;;;;;;4.96;100.00;99820.81;4997943;28;20114;-70
2022/04/08 00:32:03;;;;;;;7.28;1.80;;;;;;;4.99;100.00;99813.06;4997248;28;20030;-70
2022/04/08 00:34:29;;;;;;;8.23;1.83;;;;;;;5.02;100.00;99820.09;5013008;28;20025;-69
2022/04/08 00:36:55;;;;;;;15.63;2.72;;;;;;;5.04;100.00;99828.81;4996550;28;20026;-70
2022/04/08 00:39:21;;;;;;;18.98;2.65;;;;;;;5.07;100.00;99821.94;5014678;28;20061;-70
2022/04/08 00:41:47;;;;;;;8.95;1.98;;;;;;;5.12;100.00;99839.41;4997127;28;20033;-70
2022/04/08 00:44:12;;;;;;;16.10;1.80;;;;;;;5.13;100.00;99831.63;5013658;28;20033;-70
2022/04/08 00:46:38;;;;;;;11.50;1.50;;;;;;;5.17;100.00;99835.19;5013592;28;20392;-70
2022/04/08 00:49:04;;;;;;;12.45;1.90;;;;;;;5.20;100.00;99828.28;5009494;28;20526;-71
2022/04/08 00:51:30;;;;;;;13.98;2.08;;;;;;;5.23;100.00;99840.53;5014454;28;20390;-71
2022/04/08 00:53:56;;;;;;;14.07;2.17;;;;;;;5.23;100.00;99848.34;5015086;28;20028;-70
2022/04/08 00:56:22;;;;;;;12.43;2.25;;;;;;;5.18;100.00;99855.19;5014498;28;20034;-70
2022/04/08 00:58:47;;;;;;;13.50;1.55;;;;;;;5.18;100.00;99856.09;5009772;28;20058;-70
2022/04/08 01:01:13;;;;;;;18.90;2.45;;;;;;;5.20;100.00;99858.72;5012711;28;20034;-70
2022/04/08 01:03:38;;;;;;;13.38;2.17;;;;;;;5.20;100.00;99859.59;5013862;28;20454;-70
2022/04/08 01:06:04;;;;;;;13.15;1.90;;;;;;;5.20;100.00;99864.81;5013571;28;20041;-71
2022/04/08 01:08:30;;;;;;;13.82;1.85;;;;;;;5.23;100.00;99856.19;5013063;28;20037;-70
2022/04/08 01:10:56;;;;;;;15.43;1.55;;;;;;;5.25;100.00;99854.50;5013042;28;20026;-70
2022/04/08 01:13:22;;;;;;;14.43;1.98;;;;;;;5.26;100.00;99845.81;5012080;28;20017;-70
2022/04/08 01:15:47;;;;;;;12.48;1.70;;;;;;;5.22;100.00;99842.28;5014314;28;20467;-70
2022/04/08 01:18:12;;;;;;;20.30;2.20;;;;;;;5.19;100.00;99856.97;5012577;28;20029;-70
2022/04/08 01:20:38;;;;;;;19.55;2.53;;;;;;;5.18;100.00;99857.78;5011880;28;20605;-70
2022/04/08 01:23:04;;;;;;;16.30;1.98;;;;;;;5.14;100.00;99863.78;5014256;28;20038;-70
2022/04/08 01:25:30;;;;;;;17.38;3.10;;;;;;;5.12;100.00;99857.66;5012950;28;20030;-70
2022/04/08 01:27:55;;;;;;;8.80;2.05;;;;;;;5.09;100.00;99865.41;5011792;28;20030;-70
2022/04/08 01:30:21;;;;;;;15.52;1.90;;;;;;;5.16;100.00;99867.31;5012728;28;20097;-70
2022/04/08 01:32:46;;;;;;;10.50;1.65;;;;;;;5.21;100.00;99871.78;4995442;28;20111;-70
2022/04/08 01:35:12;;;;;;;12.00;1.80;;;;;;;5.28;100.00;99875.44;5013563;28;20017;-70
2022/04/08 01:37:37;;;;;;;13.75;2.33;;;;;;;5.27;100.00;99876.25;5012401;28;20065;-70
2022/04/08 01:40:03;;;;;;;17.05;2.28;;;;;;;5.26;100.00;99882.31;5013725;28;20124;-70
2022/04/08 01:42:28;;;;;;;21.25;4.18;;;;;;;5.26;100.00;99900.56;5014125;28;20033;-70
2022/04/08 01:44:54;;;;;;;13.82;1.35;;;;;;;5.25;100.00;99911.88;4995145;28;20109;-70
2022/04/08 01:47:21;;;;;;;10.60;2.08;;;;;;;5.07;100.00;99905.38;5011742;28;20447;-70
2022/04/08 01:49:46;;;;;;;8.70;1.73;;;;;;;4.79;100.00;99905.53;5007140;28;20036;-71
2022/04/08 01:52:12;;;;;;;5.32;1.35;;;;;;;4.54;100.00;99899.72;4986924;28;20018;-70
2022/04/08 01:54:37;;;;;;;9.75;1.58;;;;;;;4.44;100.00;99902.94;5013355;28;20088;-70
2022/04/08 01:57:03;;;;;;;5.57;1.38;;;;;;;4.26;100.00;99901.63;4996374;28;20030;-70
2022/04/08 01:59:28;;;;;;;6.00;1.58;;;;;;;4.12;100.00;99911.63;5013868;28;20459;-70
2022/04/08 02:01:53;;;;;;;6.93;2.05;;;;;;;4.12;100.00;99908.16;5013240;28;20024;-70
2022/04/08 02:04:18;;;;;;;12.85;2.22;;;;;;;4.08;100.00;99909.78;5012294;28;20418;-70
2022/04/08 02:06:44;;;;;;;18.25;2.35;;;;;;;4.10;100.00;99902.91;5012710;28;20104;-70
2022/04/08 02:09:10;;;;;;;6.75;1.85;;;;;;;4.12;100.00;99908.16;4993834;28;20084;-70
2022/04/08 02:11:36;;;;;;;7.43;2.30;;;;;;;4.20;100.00;99894.50;5011917;28;20068;-70
2022/04/08 02:14:03;;;;;;;11.10;2.22;;;;;;;4.36;100.00;99902.75;5012693;28;20513;-70
2022/04/08 02:16:28;;;;;;;8.35;2.05;;;;;;;4.60;100.00;99897.28;4995810;28;20436;-70
2022/04/08 02:18:53;;;;;;;10.05;2.20;;;;;;;4.68;100.00;99889.63;5011071;28;20027;-70
2022/04/08 02:21:19;;;;;;;7.95;2.05;;;;;;;4.86;100.00;99887.50;5012255;28;20103;-70
2022/04/08 02:23:54;;;;;;;8.80;1.88;;;;;;;4.94;100.00;99881.56;5013244;28;20040;-70
2022/04/08 02:26:20;;;;;;;9.18;1.55;;;;;;;5.02;100.00;99886.13;5011405;28;20036;-70
2022/04/08 02:28:46;;;;;;;10.50;1.88;;;;;;;5.10;100.00;99875.00;5012094;28;20034;-70
2022/04/08 02:31:12;;;;;;;5.28;1.95;;;;;;;5.11;100.00;99879.38;5013190;28;20037;-70
2022/04/08 02:33:38;;;;;;;9.43;1.98;;;;;;;5.11;99.00;99869.81;4993735;28;20041;-70
2022/04/08 02:36:04;;;;;;;8.45;1.80;;;;;;;5.19;98.78;99870.00;5012678;28;20030;-70
2022/04/08 02:38:30;;;;;;;8.98;2.05;;;;;;;5.21;98.81;99878.75;4994681;28;20477;-70
2022/04/08 02:40:55;;;;;;;7.93;1.65;;;;;;;5.24;99.03;99870.97;4993531;28;20036;-70
2022/04/08 02:43:20;;;;;;;6.15;1.88;;;;;;;5.23;99.49;99877.91;5011679;28;20042;-70
2022/04/08 02:45:46;;;;;;;5.80;1.70;;;;;;;5.19;99.49;99877.81;4995319;28;20026;-70
2022/04/08 02:48:13;;;;;;;9.27;2.47;;;;;;;5.13;98.90;99875.97;5011426;28;20026;-70
2022/04/08 02:50:42;;;;;;;9.98;2.90;;;;;;;5.12;98.98;99870.72;5010386;28;20045;-70
2022/04/08 02:53:08;;;;;;;6.13;1.90;;;;;;;5.10;97.87;99867.16;5012656;28;20108;-70
2022/04/08 02:55:35;;;;;;;12.80;2.08;;;;;;;5.13;97.18;99872.44;5010860;28;20083;-70
2022/04/08 02:58:00;;;;;;;7.25;2.00;;;;;;;5.11;97.41;99879.38;5011147;28;20359;-70
2022/04/08 03:00:26;;;;;;;8.07;2.08;;;;;;;5.07;97.96;99886.22;5012300;28;20041;-70
2022/04/08 03:02:51;;;;;;;5.68;1.48;;;;;;;5.02;98.71;99886.13;5012709;28;20367;-70
2022/04/08 03:05:16;;;;;;;7.10;1.48;;;;;;;5.02;98.02;99896.56;5012923;28;20030;-70
2022/04/08 03:07:43;;;;;;;9.07;1.77;;;;;;;5.04;98.63;99902.69;5012319;28;20030;-70
2022/04/08 03:10:09;;;;;;;3.20;1.40;;;;;;;5.04;99.56;99905.28;5012085;28;20030;-70
2022/04/08 03:12:35;;;;;;;16.75;1.70;;;;;;;5.07;99.22;99910.59;5010391;28;20056;-70
2022/04/08 03:15:01;;;;;;;6.75;1.45;;;;;;;5.10;99.89;99914.09;4995152;28;20080;-70
2022/04/08 03:17:27;;;;;;;8.73;2.38;;;;;;;5.08;100.00;99927.13;4995152;28;20030;-70
2022/04/08 03:19:52;;;;;;;6.65;1.33;;;;;;;5.09;100.00;99930.59;5011558;28;20402;-70
2022/04/08 03:22:20;;;;;;;7.50;1.52;;;;;;;5.10;100.00;99924.53;5012455;28;20022;-70
2022/04/08 03:24:50;;;;;;;9.23;1.83;;;;;;;5.07;100.00;99925.34;5011330;28;20066;-71
2022/04/08 03:27:17;;;;;;;12.25;1.88;;;;;;;5.10;100.00;99933.25;4994275;28;20470;-70
2022/04/08 03:29:43;;;;;;;7.53;1.67;;;;;;;5.09;100.00;99927.97;5012876;28;20104;-70
2022/04/08 03:32:09;;;;;;;9.00;1.40;;;;;;;5.07;100.00;99931.47;5014357;28;20101;-70
2022/04/08 03:34:34;;;;;;;7.00;1.58;;;;;;;5.06;100.00;99924.47;5015148;28;20470;-70
2022/04/08 03:37:00;;;;;;;8.98;1.60;;;;;;;5.11;100.00;99934.13;5016132;28;20038;-70
2022/04/08 03:39:25;;;;;;;8.60;1.70;;;;;;;5.07;100.00;99931.47;5015012;28;20148;-70
2022/04/08 03:41:51;;;;;;;12.07;2.00;;;;;;;5.10;100.00;99924.53;5014846;28;20032;-70
2022/04/08 03:44:16;;;;;;;9.98;1.67;;;;;;;5.06;100.00;99928.81;5015728;28;20022;-70
2022/04/08 03:46:43;;;;;;;7.72;1.40;;;;;;;5.05;100.00;99927.06;5014193;28;20088;-70
2022/04/08 03:49:14;;;;;;;8.77;1.50;;;;;;;5.03;100.00;99929.63;5012569;28;20049;-70
2022/04/08 03:51:40;;;;;;;9.30;1.60;;;;;;;5.02;100.00;99922.63;4997746;28;20021;-70
2022/04/08 03:54:06;;;;;;;7.47;1.30;;;;;;;5.02;100.00;99921.78;5015842;28;20044;-70
2022/04/08 03:56:31;;;;;;;13.88;1.48;;;;;;;4.96;100.00;99917.25;4998216;28;20030;-70
2022/04/08 03:58:57;;;;;;;5.05;1.20;;;;;;;4.89;100.00;99918.84;5012823;28;20022;-70
2022/04/08 04:01:22;;;;;;;9.15;1.38;;;;;;;4.91;100.00;99916.28;5011982;28;20038;-70
2022/04/08 04:03:47;;;;;;;11.85;1.42;;;;;;;4.89;100.00;99917.97;4993804;28;20053;-70
2022/04/08 04:06:13;;;;;;;14.45;2.45;;;;;;;4.89;100.00;99913.63;5015355;28;20167;-70
2022/04/08 04:08:38;;;;;;;9.18;1.58;;;;;;;4.91;100.00;99918.91;5015491;28;20052;-70
2022/04/08 04:11:03;;;;;;;10.70;1.40;;;;;;;4.89;100.00;99911.03;5015711;28;20029;-70
2022/04/08 04:13:28;;;;;;;7.32;1.25;;;;;;;4.83;100.00;99912.59;5015233;28;20029;-70
2022/04/08 04:15:54;;;;;;;14.80;2.03;;;;;;;4.87;100.00;99906.59;4998097;28;20036;-71
2022/04/08 04:18:19;;;;;;;8.63;1.20;;;;;;;4.90;100.00;99906.72;5014218;28;20053;-70
2022/04/08 04:20:44;;;;;;;7.60;1.45;;;;;;;4.88;100.00;99914.50;5015369;28;20398;-70
2022/04/08 04:23:10;;;;;;;12.23;1.40;;;;;;;4.84;100.00;99916.97;5013269;28;20048;-70
2022/04/08 04:25:35;;;;;;;17.35;1.80;;;;;;;4.84;100.00;99916.97;5013581;28;20054;-70
2022/04/08 04:28:01;;;;;;;5.78;1.33;;;;;;;4.78;100.00;99911.63;4996001;28;20500;-70
2022/04/08 04:30:27;;;;;;;7.13;1.45;;;;;;;4.76;100.00;99916.81;5015080;28;20056;-70
2022/04/08 04:32:53;;;;;;;9.00;1.23;;;;;;;4.75;100.00;99912.41;5013151;28;20174;-70
2022/04/08 04:35:19;;;;;;;7.82;1.70;;;;;;;4.72;100.00;99918.44;5012991;28;20026;-70
2022/04/08 04:37:44;;;;;;;5.88;1.20;;;;;;;4.71;100.00;99918.41;4997719;28;20488;-70
2022/04/08 04:40:10;;;;;;;9.82;1.10;;;;;;;4.69;100.00;99917.47;5013461;28;20040;-71
2022/04/08 04:42:35;;;;;;;11.30;2.33;;;;;;;4.67;100.00;99920.03;5015058;28;20022;-71
2022/04/08 04:45:01;;;;;;;9.30;1.75;;;;;;;4.66;100.00;99920.00;5012777;28;20026;-71
2022/04/08 04:47:26;;;;;;;8.73;1.35;;;;;;;4.64;100.00;99919.97;5012314;28;20044;-72
2022/04/08 04:49:51;;;;;;;11.77;1.55;;;;;;;4.63;100.00;99923.41;5013231;28;20056;-70
2022/04/08 04:52:17;;;;;;;10.23;1.42;;;;;;;4.65;100.00;99918.22;5014832;28;20034;-71
2022/04/08 04:54:42;;;;;;;9.60;2.22;;;;;;;4.70;100.00;99920.09;5014271;28;20123;-71
2022/04/08 04:57:07;;;;;;;7.80;1.35;;;;;;;4.75;100.00;99917.63;5014343;28;20030;-71
2022/04/08 04:59:33;;;;;;;11.68;1.70;;;;;;;4.79;100.00;99916.88;5012590;28;20041;-71
2022/04/08 05:01:59;;;;;;;8.07;1.25;;;;;;;4.82;100.00;99913.47;5011257;28;20121;-71
2022/04/08 05:04:24;;;;;;;13.98;2.10;;;;;;;4.85;100.00;99916.13;5012462;28;20113;-71
2022/04/08 05:06:49;;;;;;;6.88;1.73;;;;;;;4.87;100.00;99922.25;5008369;28;20030;-71
2022/04/08 05:09:14;;;;;;;10.60;1.90;;;;;;;4.87;100.00;99922.25;5013876;28;20041;-71
2022/04/08 05:11:40;;;;;;;7.85;1.38;;;;;;;4.89;100.00;99920.56;5012200;28;20087;-71
2022/04/08 05:14:05;;;;;;;6.88;1.42;;;;;;;4.88;100.00;99914.50;5014266;28;20034;-71
2022/04/08 05:16:31;;;;;;;11.50;1.80;;;;;;;4.85;100.00;99917.00;4996204;28;20041;-71
2022/04/08 05:18:56;;;;;;;13.00;2.78;;;;;;;4.86;100.00;99915.28;5015178;28;20386;-68
2022/04/08 05:21:22;;;;;;;9.95;1.83;;;;;;;4.91;100.00;99911.09;5012924;28;20076;-70
2022/04/08 05:23:47;;;;;;;9.63;1.90;;;;;;;4.98;100.00;99897.34;5015048;28;20366;-69
2022/04/08 05:26:14;;;;;;;11.80;2.05;;;;;;;5.02;100.00;99896.56;5012932;28;20033;-70
2022/04/08 05:28:40;;;;;;;14.65;1.70;;;;;;;5.05;100.00;99894.03;4996273;28;20026;-69
2022/04/08 05:31:05;;;;;;;11.23;1.90;;;;;;;5.15;100.00;99889.03;5013660;28;20014;-69
2022/04/08 05:33:30;;;;;;;8.07;1.63;;;;;;;5.25;100.00;99888.41;5012433;28;20022;-70
2022/04/08 05:35:56;;;;;;;11.52;1.60;;;;;;;5.26;99.91;99892.75;5013052;28;20520;-70
2022/04/08 05:38:21;;;;;;;12.23;1.23;;;;;;;5.30;98.95;99886.75;5011990;28;20439;-70
2022/04/08 05:40:46;;;;;;;8.90;1.35;;;;;;;5.37;97.83;99886.06;5010816;28;20017;-69
2022/04/08 05:43:12;;;;;;;15.52;1.98;;;;;;;5.37;98.38;99880.84;5012541;28;20437;-69
2022/04/08 05:45:37;;;;;;;14.88;1.80;;;;;;;5.35;98.95;99876.44;5011808;28;20022;-69
2022/04/08 05:48:06;;;;;;;13.30;1.55;;;;;;;5.36;99.09;99881.69;4994790;28;20402;-69
2022/04/08 05:50:32;;;;;;;12.40;2.28;;;;;;;5.39;99.04;99871.31;5013736;28;20080;-69
2022/04/08 05:52:57;;;;;;;6.65;1.30;;;;;;;5.40;99.87;99878.31;5013269;28;20061;-69
2022/04/08 05:55:23;;;;;;;8.95;2.13;;;;;;;5.44;99.80;99874.03;5010256;28;20025;-70
2022/04/08 05:57:48;;;;;;;10.38;1.80;;;;;;;5.50;98.77;99873.28;5012051;28;20045;-70
2022/04/08 06:00:15;;;;;;;10.88;1.92;;;;;;;5.53;99.86;99881.16;5013053;28;20021;-71
2022/04/08 06:02:47;;;;;;;12.88;2.13;;;;;;;5.56;99.92;99878.63;5012412;28;20048;-71
2022/04/08 06:05:15;;;;;;;10.30;1.73;;;;;;;5.58;99.72;99885.63;4994095;28;20120;-71
2022/04/08 06:07:49;;;;;;;14.02;2.17;;;;;;;5.64;100.00;99881.41;4995821;28;20025;-69
2022/04/08 06:10:18;;;;;;;7.55;1.50;;;;;;;5.69;98.96;99891.06;5012159;28;20036;-73
2022/04/08 06:12:45;;;;;;;10.20;1.65;;;;;;;5.73;99.71;99882.47;5013851;28;20056;-72
2022/04/08 06:15:11;;;;;;;13.52;1.40;;;;;;;5.78;99.37;99887.78;5013190;28;20044;-72
2022/04/08 06:17:37;;;;;;;9.73;1.40;;;;;;;5.80;99.75;99887.81;4994806;28;20034;-72
2022/04/08 06:20:07;;;;;;;11.30;1.65;;;;;;;5.83;100.00;99883.56;5012791;28;20038;-73
2022/04/08 06:22:33;;;;;;;10.57;1.50;;;;;;;5.86;100.00;99887.94;4985247;28;20053;-72
2022/04/08 06:24:58;;;;;;;10.20;1.60;;;;;;;5.87;99.93;99888.00;4995235;28;20041;-72
2022/04/08 06:27:23;;;;;;;13.23;2.70;;;;;;;5.91;100.00;99886.28;5013002;28;20422;-72
2022/04/08 06:29:49;;;;;;;11.07;1.63;;;;;;;5.93;100.00;99878.50;5011542;28;20064;-72
2022/04/08 06:32:14;;;;;;;13.95;1.80;;;;;;;5.98;100.00;99884.72;5013143;28;20100;-72
2022/04/08 06:34:39;;;;;;;10.07;1.48;;;;;;;6.00;100.00;99886.50;5012855;28;20108;-72
2022/04/08 06:37:05;;;;;;;10.68;1.88;;;;;;;6.03;100.00;99883.97;5011783;28;20083;-72
2022/04/08 06:39:31;;;;;;;11.60;2.47;;;;;;;6.06;100.00;99888.38;5012172;28;20046;-72
2022/04/08 06:41:57;;;;;;;10.30;1.92;;;;;;;6.08;100.00;99882.31;5012846;28;20018;-72
2022/04/08 06:44:22;;;;;;;6.30;1.50;;;;;;;6.09;100.00;99885.84;5013036;28;20096;-72
2022/04/08 06:46:47;;;;;;;12.18;1.92;;;;;;;6.12;100.00;99890.19;4994925;28;20026;-71
2022/04/08 06:49:13;;;;;;;8.18;1.60;;;;;;;6.16;100.00;99885.09;5013260;28;20026;-71
2022/04/08 06:51:38;;;;;;;12.55;1.67;;;;;;;6.22;99.90;99897.38;4995309;28;20152;-71
2022/04/08 06:54:03;;;;;;;11.52;1.52;;;;;;;6.25;100.00;99892.19;5011986;28;20025;-71
2022/04/08 06:56:29;;;;;;;9.60;1.35;;;;;;;6.30;100.00;99887.94;4993277;28;20405;-72
2022/04/08 06:58:54;;;;;;;13.48;2.33;;;;;;;6.37;100.00;99891.56;5012404;28;20511;-71
2022/04/08 07:01:19;;;;;;;15.63;1.92;;;;;;;6.40;99.17;99882.06;5012779;28;20039;-72
2022/04/08 07:03:45;;;;;;;11.05;1.90;;;;;;;6.43;99.26;99889.06;4994864;28;20102;-72
2022/04/08 07:06:10;;;;;;;11.60;1.60;;;;;;;6.53;97.77;99887.50;4998291;28;20032;-72
2022/04/08 07:08:35;;;;;;;12.65;1.63;;;;;;;6.54;97.53;99884.03;5016665;28;20104;-72
2022/04/08 07:11:01;;;;;;;14.65;1.90;;;;;;;6.59;96.20;99879.72;5016258;28;20026;-71
2022/04/08 07:13:26;;;;;;;9.25;1.92;;;;;;;6.68;95.51;99881.66;4998407;28;20042;-71
2022/04/08 07:15:51;;;;;;;15.52;2.35;;;;;;;6.67;95.34;99879.88;5017107;28;20451;-71
2022/04/08 07:18:17;;;;;;;10.75;1.60;;;;;;;6.72;95.28;99884.31;5016084;28;20085;-71
2022/04/08 07:20:42;;;;;;;13.32;2.22;;;;;;;6.79;94.46;99874.84;5016656;28;20050;-72
2022/04/08 07:23:07;;;;;;;10.18;2.25;;;;;;;6.84;93.52;99872.31;5016427;28;20021;-72
2022/04/08 07:25:33;;;;;;;11.60;1.77;;;;;;;6.87;93.41;99872.38;5014892;28;20045;-71
2022/04/08 07:27:58;;;;;;;10.68;1.90;;;;;;;6.87;93.31;99877.59;5016634;28;20029;-72
2022/04/08 07:30:25;;;;;;;11.82;1.60;;;;;;;6.92;93.38;99878.56;5015673;28;20493;-71
2022/04/08 07:32:52;;;;;;;7.07;1.70;;;;;;;6.96;95.11;99880.34;5016217;28;20402;-71
2022/04/08 07:35:18;;;;;;;23.40;5.43;;;;;;;7.08;94.37;99872.69;4998933;28;20024;-72
2022/04/08 07:37:44;;;;;;;7.47;1.40;;;;;;;7.06;91.39;99869.16;5015011;28;20597;-72
2022/04/08 07:40:12;;;;;;;11.65;1.95;;;;;;;6.99;90.79;99864.69;5015794;28;20038;-72
2022/04/08 07:42:38;;;;;;;8.43;1.33;;;;;;;7.04;91.79;99864.75;5013797;28;20069;-71
2022/04/08 07:45:05;;;;;;;7.63;1.23;;;;;;;6.95;92.09;99868.13;4998609;28;20038;-73
2022/04/08 07:47:31;;;;;;;13.23;1.52;;;;;;;6.99;93.04;99862.09;5015185;28;20034;-72
2022/04/08 07:50:04;;;;;;;8.05;1.30;;;;;;;7.06;93.48;99865.69;5016100;28;20068;-72
2022/04/08 07:52:29;;;;;;;13.38;1.85;;;;;;;7.05;92.26;99862.19;4999125;28;20109;-72
2022/04/08 07:54:55;;;;;;;10.38;1.02;;;;;;;7.13;91.53;99869.28;5016145;28;20057;-71
2022/04/08 07:57:21;;;;;;;6.88;1.38;;;;;;;7.08;90.18;99859.63;5015640;28;20116;-71
2022/04/08 07:59:47;;;;;;;9.57;1.55;;;;;;;7.13;90.36;99859.66;5015344;28;20084;-71
2022/04/08 08:02:13;;;;;;;7.55;1.73;;;;;;;7.12;90.20;99863.13;4996115;28;20033;-72
2022/04/08 08:04:38;;;;;;;9.20;1.45;;;;;;;7.16;90.57;99859.75;5014960;28;20386;-71
2022/04/08 08:07:04;;;;;;;7.30;1.48;;;;;;;7.10;90.31;99862.25;5014455;28;20131;-72
2022/04/08 08:09:29;;;;;;;13.82;1.23;;;;;;;7.10;90.47;99857.00;5014712;28;20050;-70
2022/04/08 08:11:54;;;;;;;9.32;1.92;;;;;;;7.08;89.14;99856.09;5015094;28;20466;-70
2022/04/08 08:14:20;;;;;;;8.57;1.50;;;;;;;7.09;90.21;99858.75;5015219;28;20034;-71
2022/04/08 08:16:45;;;;;;;5.95;1.20;;;;;;;7.15;91.19;99857.06;4997578;28;20029;-71
2022/04/08 08:19:11;;;;;;;8.68;1.38;;;;;;;7.19;91.42;99859.78;5015609;28;20025;-71
2022/04/08 08:21:36;;;;;;;14.35;1.85;;;;;;;7.26;89.72;99850.28;4997746;28;20127;-71
2022/04/08 08:24:02;;;;;;;12.70;1.85;;;;;;;7.26;89.63;99853.75;5015009;28;20033;-71
2022/04/08 08:26:27;;;;;;;6.05;1.00;;;;;;;7.29;89.73;99849.44;4999459;28;20030;-71
2022/04/08 08:28:53;;;;;;;9.45;1.63;;;;;;;7.27;88.50;99841.56;4981846;28;20112;-71
2022/04/08 08:31:18;;;;;;;6.97;1.13;;;;;;;7.30;88.60;99841.59;5015582;28;20589;-70
2022/04/08 08:33:43;;;;;;;9.00;1.08;;;;;;;7.38;90.07;99839.97;5015427;28;20026;-70
2022/04/08 08:36:09;;;;;;;14.30;1.45;;;;;;;7.46;91.04;99841.78;4997757;28;20044;-71
2022/04/08 08:38:35;;;;;;;9.07;1.88;;;;;;;7.46;90.36;99841.78;5015456;28;20160;-71
2022/04/08 08:41:01;;;;;;;11.75;2.13;;;;;;;7.51;88.81;99842.75;5013616;28;20030;-71
2022/04/08 08:43:27;;;;;;;9.85;1.77;;;;;;;7.58;89.00;99836.72;5018963;28;20036;-71
2022/04/08 08:45:56;;;;;;;8.57;2.47;;;;;;;7.81;89.50;99838.75;5015099;28;20034;-71
2022/04/08 08:48:22;;;;;;;11.75;1.80;;;;;;;7.88;88.91;99838.84;5014745;28;20037;-72
2022/04/08 08:50:50;;;;;;;6.03;1.25;;;;;;;8.00;88.30;99834.59;5015968;28;20026;-71
2022/04/08 08:53:18;;;;;;;11.43;1.42;;;;;;;7.88;86.81;99825.75;4997505;28;20129;-71
2022/04/08 08:55:45;;;;;;;9.18;1.33;;;;;;;7.89;85.76;99821.38;5014051;28;20026;-71
2022/04/08 08:58:10;;;;;;;10.63;2.65;;;;;;;7.82;86.30;99824.78;5015003;28;20034;-71
2022/04/08 09:00:36;;;;;;;7.72;1.60;;;;;;;7.86;87.27;99822.22;5014953;28;20390;-71
2022/04/08 09:03:05;;;;;;;6.55;1.80;;;;;;;8.01;88.71;99826.72;5014000;28;20044;-71
2022/04/08 09:05:39;;;;;;;8.20;1.23;;;;;;;8.14;87.20;99821.63;5026129;28;20135;-71
2022/04/08 09:08:06;;;;;;;7.80;1.20;;;;;;;8.08;84.52;99823.34;5015311;28;20478;-71
2022/04/08 09:10:33;;;;;;;8.05;1.90;;;;;;;8.07;85.71;99828.53;5020187;28;20036;-71
2022/04/08 09:13:00;;;;;;;5.65;1.13;;;;;;;8.23;86.92;99821.72;5014812;28;20025;-71
2022/04/08 09:15:26;;;;;;;4.78;1.40;;;;;;;8.30;86.23;99838.38;5014780;28;20029;-71
2022/04/08 09:17:52;;;;;;;5.55;1.50;;;;;;;8.28;85.73;99840.97;5014405;28;20060;-71
2022/04/08 09:20:17;;;;;;;11.85;1.42;;;;;;;8.32;86.45;99837.53;5013717;28;20046;-71
2022/04/08 09:22:51;;;;;;;9.23;1.40;;;;;;;8.29;84.90;99834.88;5013849;28;20026;-71
2022/04/08 09:25:19;;;;;;;9.07;1.25;;;;;;;8.17;85.88;99837.38;5014496;28;20025;-71
2022/04/08 09:27:45;;;;;;;11.55;1.20;;;;;;;8.10;86.64;99834.69;5012497;28;20105;-71
2022/04/08 09:30:10;;;;;;;6.70;1.67;;;;;;;8.02;87.19;99831.13;5016187;28;20112;-71
2022/04/08 09:32:36;;;;;;;9.77;1.60;;;;;;;7.89;85.96;99821.38;5014398;28;20022;-71
2022/04/08 09:35:03;;;;;;;8.07;1.40;;;;;;;7.89;87.46;99826.59;5013850;28;20060;-71
2022/04/08 09:37:29;;;;;;;6.90;1.33;;;;;;;7.92;88.86;99826.63;4996157;28;20394;-71
2022/04/08 09:39:59;;;;;;;5.30;1.05;;;;;;;7.89;88.46;99818.75;5014867;28;20030;-71
2022/04/08 09:42:40;;;;;;;5.60;1.25;;;;;;;7.87;89.45;99821.34;5013662;28;20029;-71
2022/04/08 09:45:06;;;;;;;6.45;1.40;;;;;;;7.86;89.79;99829.19;5013261;28;20552;-71
2022/04/08 09:47:32;;;;;;;8.15;1.30;;;;;;;7.90;89.09;99813.53;5014255;28;20036;-71
2022/04/08 09:49:57;;;;;;;8.68;1.33;;;;;;;7.97;89.46;99817.09;5013718;28;20040;-71
2022/04/08 09:52:25;;;;;;;6.05;1.67;;;;;;;8.12;90.70;99815.50;5013597;28;20018;-71
2022/04/08 09:54:53;;;;;;;14.38;1.80;;;;;;;8.25;90.41;99826.09;5013934;28;20033;-71
2022/04/08 09:57:18;;;;;;;6.78;1.58;;;;;;;8.19;89.87;99823.44;5013026;28;20080;-71
2022/04/08 09:59:52;;;;;;;10.73;2.10;;;;;;;8.28;89.51;99830.50;5013425;28;20440;-71
2022/04/08 10:02:18;;;;;;;15.10;1.88;;;;;;;8.29;88.77;99829.66;5013051;28;20045;-71
2022/04/08 10:04:44;;;;;;;11.43;1.20;;;;;;;8.44;88.00;99832.38;5013854;28;20049;-71
2022/04/08 10:07:11;;;;;;;7.05;1.65;;;;;;;8.48;86.63;99832.44;4996155;28;20529;-72
2022/04/08 10:09:47;;;;;;;9.80;1.20;;;;;;;8.52;87.33;99829.88;4996424;28;20394;-72
2022/04/08 10:12:22;;;;;;;10.05;1.77;;;;;;;8.67;86.45;99822.97;5013919;28;20022;-72
2022/04/08 10:15:01;;;;;;;8.15;1.48;;;;;;;8.87;86.71;99838.88;4996113;28;20056;-71
2022/04/08 10:17:27;;;;;;;6.18;2.35;;;;;;;8.83;84.49;99831.84;5013739;28;20064;-72
2022/04/08 10:19:52;;;;;;;3.05;1.15;;;;;;;8.80;84.66;99823.97;5013426;28;20073;-72
2022/04/08 10:22:19;;;;;;;11.25;1.80;;;;;;;8.85;87.88;99835.38;4995688;28;20140;-72
2022/04/08 10:24:53;;;;;;;15.80;2.60;;;;;;;8.87;85.12;99836.25;5013663;28;20363;-71
2022/04/08 10:27:28;;;;;;;;;;;;;;;8.85;83.83;99827.50;5013800;28;20394;-71
2022/04/08 10:29:54;;;;;;;10.38;1.92;;;;;;;8.95;85.79;99826.69;4994764;28;19945;-71
2022/04/08 10:32:21;;;;;;;7.38;1.42;;;;;;;9.17;87.13;99834.69;5012598;28;20028;-71
2022/04/08 10:34:46;;;;;;;12.98;1.65;;;;;;;9.29;87.50;99826.88;5013325;28;20026;-71
2022/04/08 10:37:24;;;;;;;7.78;1.42;;;;;;;9.30;85.04;99820.78;5013444;28;20030;-72
2022/04/08 10:40:09;;;;;;;15.77;2.00;;;;;;;9.20;83.68;99838.22;5013208;28;20026;-71
2022/04/08 10:42:34;;;;;;;6.50;1.33;;;;;;;8.97;83.81;99838.09;4995464;28;20025;-72
2022/04/08 10:45:13;;;;;;;10.35;1.38;;;;;;;8.79;84.71;99846.72;5012265;28;20117;-71
2022/04/08 10:47:49;;;;;;;10.45;1.67;;;;;;;8.62;85.33;99846.56;5013280;28;20030;-71
2022/04/08 10:50:30;;;;;;;8.23;1.40;;;;;;;8.74;86.55;99845.78;5013100;28;20069;-72
2022/04/08 10:53:31;;;;;;;4.68;1.17;;;;;;;8.80;85.03;99839.72;5012693;28;20018;-71
2022/04/08 10:56:10;;;;;;;4.28;1.10;;;;;;;8.78;85.15;99827.44;4979140;28;20469;-72
2022/04/08 10:58:49;;;;;;;7.72;1.00;;;;;;;8.86;84.36;99816.16;4996173;28;20032;-71
2022/04/08 11:01:24;;;;;;;6.32;1.35;;;;;;;8.77;83.33;99809.94;5013186;28;20113;-71
2022/04/08 11:03:57;;;;;;;3.60;1.05;;;;;;;8.77;84.14;99820.44;5011817;28;20167;-71
2022/04/08 11:06:25;;;;;;;12.25;1.77;;;;;;;8.78;84.03;99821.34;5012568;28;20086;-71
2022/04/08 11:08:50;;;;;;;8.60;1.40;;;;;;;8.84;84.37;99824.00;5013412;28;20029;-72
2022/04/08 11:11:16;;;;;;;6.72;1.15;;;;;;;8.72;82.17;99814.31;5010404;28;20072;-71
2022/04/08 11:13:44;;;;;;;6.88;1.60;;;;;;;8.67;83.55;99821.25;5011725;28;20057;-73
2022/04/08 11:16:10;;;;;;;5.28;1.30;;;;;;;8.60;84.43;99828.19;5012640;28;20084;-72
2022/04/08 11:18:35;;;;;;;7.90;1.88;;;;;;;8.63;83.03;99819.47;5012753;28;20030;-72
2022/04/08 11:21:01;;;;;;;8.10;1.20;;;;;;;8.55;79.87;99813.28;5012342;28;20038;-72
2022/04/08 11:23:28;;;;;;;3.80;1.13;;;;;;;8.59;80.53;99804.59;5011557;28;20033;-72
2022/04/08 11:25:54;;;;;;;9.55;1.27;;;;;;;8.72;82.20;99811.69;5011895;28;20465;-71
2022/04/08 11:28:23;;;;;;;9.45;1.88;;;;;;;8.68;81.19;99794.19;4995046;28;20025;-71
2022/04/08 11:30:58;;;;;;;8.20;1.40;;;;;;;8.70;82.45;99795.03;5011775;28;20028;-71